sensor_id;sensor_type;location;lat;lon;timestamp;temperature;humidity
40516;DHT22;26216;53.724;9.898;2022-11-03T00:01:45;10.20;94.40
40516;DHT22;26216;53.724;9.898;2022-11-03T00:04:16;10.20;94.30
40516;DHT22;26216;53.724;9.898;2022-11-03T00:06:43;10.20;94.40
40516;DHT22;26216;53.724;9.898;2022-11-03T00:09:11;10.20;94.30
40516;DHT22;26216;53.724;9.898;2022-11-03T00:11:38;10.10;94.30
40516;DHT22;26216;53.724;9.898;2022-11-03T00:14:05;10.10;94.30
40516;DHT22;26216;53.724;9.898;2022-11-03T00:16:32;10.10;94.40
40516;DHT22;26216;53.724;9.898;2022-11-03T00:18:58;10.10;94.30
40516;DHT22;26216;53.724;9.898;2022-11-03T00:21:24;10.10;94.30
40516;DHT22;26216;53.724;9.898;2022-11-03T00:23:50;10.10;94.40
40516;DHT22;26216;53.724;9.898;2022-11-03T00:26:19;10.10;94.40
40516;DHT22;26216;53.724;9.898;2022-11-03T00:28:50;10.10;94.40
40516;DHT22;26216;53.724;9.898;2022-11-03T00:31:21;10.10;94.30
40516;DHT22;26216;53.724;9.898;2022-11-03T00:33:48;10.10;94.40
40516;DHT22;26216;53.724;9.898;2022-11-03T00:36:16;10.00;94.60
40516;DHT22;26216;53.724;9.898;2022-11-03T00:38:43;10.10;94.50
40516;DHT22;26216;53.724;9.898;2022-11-03T00:41:09;10.00;94.50
40516;DHT22;26216;53.724;9.898;2022-11-03T00:43:35;10.00;94.50
40516;DHT22;26216;53.724;9.898;2022-11-03T00:46:02;10.00;94.50
40516;DHT22;26216;53.724;9.898;2022-11-03T00:48:30;10.00;94.50
40516;DHT22;26216;53.724;9.898;2022-11-03T00:51:08;10.10;94.60
40516;DHT22;26216;53.724;9.898;2022-11-03T00:53:42;10.10;94.60
40516;DHT22;26216;53.724;9.898;2022-11-03T00:56:11;10.10;94.60
40516;DHT22;26216;53.724;9.898;2022-11-03T00:58:39;10.10;94.60
40516;DHT22;26216;53.724;9.898;2022-11-03T01:01:09;10.00;94.60
40516;DHT22;26216;53.724;9.898;2022-11-03T01:03:37;10.10;94.60
40516;DHT22;26216;53.724;9.898;2022-11-03T01:06:08;10.10;94.70
40516;DHT22;26216;53.724;9.898;2022-11-03T01:08:52;10.10;94.70
40516;DHT22;26216;53.724;9.898;2022-11-03T01:11:21;10.10;94.80
40516;DHT22;26216;53.724;9.898;2022-11-03T01:14:16;10.10;94.80
40516;DHT22;26216;53.724;9.898;2022-11-03T01:16:42;10.10;94.80
40516;DHT22;26216;53.724;9.898;2022-11-03T01:19:08;10.10;94.80
40516;DHT22;26216;53.724;9.898;2022-11-03T01:21:34;10.10;94.80
40516;DHT22;26216;53.724;9.898;2022-11-03T01:24:01;10.10;94.90
40516;DHT22;26216;53.724;9.898;2022-11-03T01:26:29;10.10;94.90
40516;DHT22;26216;53.724;9.898;2022-11-03T01:28:55;10.10;95.20
40516;DHT22;26216;53.724;9.898;2022-11-03T01:31:23;10.10;95.00
40516;DHT22;26216;53.724;9.898;2022-11-03T01:33:51;10.10;95.00
40516;DHT22;26216;53.724;9.898;2022-11-03T01:36:17;10.20;95.00
40516;DHT22;26216;53.724;9.898;2022-11-03T01:38:44;10.10;95.00
40516;DHT22;26216;53.724;9.898;2022-11-03T01:41:16;10.20;95.10
40516;DHT22;26216;53.724;9.898;2022-11-03T01:43:50;10.20;95.10
40516;DHT22;26216;53.724;9.898;2022-11-03T01:46:21;10.20;95.10
40516;DHT22;26216;53.724;9.898;2022-11-03T01:48:50;10.20;95.20
40516;DHT22;26216;53.724;9.898;2022-11-03T01:51:20;10.20;95.40
40516;DHT22;26216;53.724;9.898;2022-11-03T01:53:48;10.20;95.10
40516;DHT22;26216;53.724;9.898;2022-11-03T01:56:15;10.20;95.10
40516;DHT22;26216;53.724;9.898;2022-11-03T01:58:42;10.30;95.10
40516;DHT22;26216;53.724;9.898;2022-11-03T02:03:51;10.30;95.20
40516;DHT22;26216;53.724;9.898;2022-11-03T02:06:23;10.20;95.20
40516;DHT22;26216;53.724;9.898;2022-11-03T02:08:57;10.30;95.20
40516;DHT22;26216;53.724;9.898;2022-11-03T02:11:25;10.30;95.20
40516;DHT22;26216;53.724;9.898;2022-11-03T02:14:11;10.30;95.20
40516;DHT22;26216;53.724;9.898;2022-11-03T02:16:40;10.30;95.10
40516;DHT22;26216;53.724;9.898;2022-11-03T02:24:56;10.30;95.20
40516;DHT22;26216;53.724;9.898;2022-11-03T02:27:24;10.30;95.10
40516;DHT22;26216;53.724;9.898;2022-11-03T02:29:50;10.30;95.10
40516;DHT22;26216;53.724;9.898;2022-11-03T02:32:24;10.30;95.10
40516;DHT22;26216;53.724;9.898;2022-11-03T02:37:56;10.30;95.00
40516;DHT22;26216;53.724;9.898;2022-11-03T02:40:28;10.30;95.00
40516;DHT22;26216;53.724;9.898;2022-11-03T02:42:55;10.30;95.00
40516;DHT22;26216;53.724;9.898;2022-11-03T02:45:24;10.30;95.20
40516;DHT22;26216;53.724;9.898;2022-11-03T02:47:53;10.40;95.00
40516;DHT22;26216;53.724;9.898;2022-11-03T02:50:19;10.40;95.00
40516;DHT22;26216;53.724;9.898;2022-11-03T02:52:47;10.30;95.00
40516;DHT22;26216;53.724;9.898;2022-11-03T03:00:53;10.40;95.10
40516;DHT22;26216;53.724;9.898;2022-11-03T03:03:25;10.30;95.10
40516;DHT22;26216;53.724;9.898;2022-11-03T03:05:56;10.40;95.20
40516;DHT22;26216;53.724;9.898;2022-11-03T03:08:28;10.40;95.20
40516;DHT22;26216;53.724;9.898;2022-11-03T03:10:56;10.40;95.20
40516;DHT22;26216;53.724;9.898;2022-11-03T03:13:24;10.40;95.20
40516;DHT22;26216;53.724;9.898;2022-11-03T03:18:51;10.40;95.20
40516;DHT22;26216;53.724;9.898;2022-11-03T03:21:24;10.40;95.10
40516;DHT22;26216;53.724;9.898;2022-11-03T03:24:08;10.40;95.00
40516;DHT22;26216;53.724;9.898;2022-11-03T03:26:40;10.40;95.00
40516;DHT22;26216;53.724;9.898;2022-11-03T03:31:46;10.40;95.00
40516;DHT22;26216;53.724;9.898;2022-11-03T03:34:14;10.30;94.90
40516;DHT22;26216;53.724;9.898;2022-11-03T03:36:43;10.30;95.00
40516;DHT22;26216;53.724;9.898;2022-11-03T03:39:12;10.30;94.80
40516;DHT22;26216;53.724;9.898;2022-11-03T03:41:40;10.30;94.80
40516;DHT22;26216;53.724;9.898;2022-11-03T03:44:08;10.20;95.10
40516;DHT22;26216;53.724;9.898;2022-11-03T03:46:43;10.30;94.90
40516;DHT22;26216;53.724;9.898;2022-11-03T03:49:10;10.20;94.90
40516;DHT22;26216;53.724;9.898;2022-11-03T03:51:37;10.20;94.90
40516;DHT22;26216;53.724;9.898;2022-11-03T03:54:03;10.20;94.90
40516;DHT22;26216;53.724;9.898;2022-11-03T03:56:36;10.20;95.00
40516;DHT22;26216;53.724;9.898;2022-11-03T03:59:02;10.10;94.90
40516;DHT22;26216;53.724;9.898;2022-11-03T04:01:29;10.10;95.00
40516;DHT22;26216;53.724;9.898;2022-11-03T04:03:54;10.10;95.00
40516;DHT22;26216;53.724;9.898;2022-11-03T04:06:20;10.10;95.00
40516;DHT22;26216;53.724;9.898;2022-11-03T04:08:46;10.10;95.10
40516;DHT22;26216;53.724;9.898;2022-11-03T04:11:12;10.10;95.10
40516;DHT22;26216;53.724;9.898;2022-11-03T04:13:56;10.10;95.20
40516;DHT22;26216;53.724;9.898;2022-11-03T04:16:40;10.10;95.30
40516;DHT22;26216;53.724;9.898;2022-11-03T04:19:25;10.00;95.30
40516;DHT22;26216;53.724;9.898;2022-11-03T04:22:09;10.00;95.30
40516;DHT22;26216;53.724;9.898;2022-11-03T04:24:41;10.00;95.30
40516;DHT22;26216;53.724;9.898;2022-11-03T04:30:16;10.00;95.40
40516;DHT22;26216;53.724;9.898;2022-11-03T04:32:49;10.00;95.40
40516;DHT22;26216;53.724;9.898;2022-11-03T04:35:22;10.00;95.40
40516;DHT22;26216;53.724;9.898;2022-11-03T04:38:02;9.90;95.30
40516;DHT22;26216;53.724;9.898;2022-11-03T04:40:33;9.90;95.30
40516;DHT22;26216;53.724;9.898;2022-11-03T04:42:59;9.90;95.40
40516;DHT22;26216;53.724;9.898;2022-11-03T04:45:31;9.90;95.40
40516;DHT22;26216;53.724;9.898;2022-11-03T04:48:01;9.90;95.40
40516;DHT22;26216;53.724;9.898;2022-11-03T04:50:27;9.90;95.40
40516;DHT22;26216;53.724;9.898;2022-11-03T04:52:55;9.90;95.50
40516;DHT22;26216;53.724;9.898;2022-11-03T04:55:21;9.90;95.50
40516;DHT22;26216;53.724;9.898;2022-11-03T04:57:48;9.90;95.50
40516;DHT22;26216;53.724;9.898;2022-11-03T05:00:17;9.90;95.50
40516;DHT22;26216;53.724;9.898;2022-11-03T05:02:48;9.90;95.50
40516;DHT22;26216;53.724;9.898;2022-11-03T05:05:23;9.90;95.60
40516;DHT22;26216;53.724;9.898;2022-11-03T05:07:57;9.90;95.60
40516;DHT22;26216;53.724;9.898;2022-11-03T05:10:27;9.90;95.60
40516;DHT22;26216;53.724;9.898;2022-11-03T05:12:54;9.90;95.60
40516;DHT22;26216;53.724;9.898;2022-11-03T05:15:36;9.90;95.70
40516;DHT22;26216;53.724;9.898;2022-11-03T05:18:30;9.90;95.70
40516;DHT22;26216;53.724;9.898;2022-11-03T05:21:02;9.90;95.80
40516;DHT22;26216;53.724;9.898;2022-11-03T05:23:34;9.90;95.70
40516;DHT22;26216;53.724;9.898;2022-11-03T05:26:02;9.90;95.70
40516;DHT22;26216;53.724;9.898;2022-11-03T05:28:41;9.90;95.70
40516;DHT22;26216;53.724;9.898;2022-11-03T05:31:21;9.80;95.70
40516;DHT22;26216;53.724;9.898;2022-11-03T05:33:48;9.90;95.80
40516;DHT22;26216;53.724;9.898;2022-11-03T05:36:19;9.90;95.70
40516;DHT22;26216;53.724;9.898;2022-11-03T05:38:45;9.90;95.80
40516;DHT22;26216;53.724;9.898;2022-11-03T05:41:15;9.90;95.90
40516;DHT22;26216;53.724;9.898;2022-11-03T05:43:44;9.90;95.80
40516;DHT22;26216;53.724;9.898;2022-11-03T05:46:11;9.90;95.90
40516;DHT22;26216;53.724;9.898;2022-11-03T05:48:41;9.80;95.90
40516;DHT22;26216;53.724;9.898;2022-11-03T05:54:22;9.90;96.10
40516;DHT22;26216;53.724;9.898;2022-11-03T05:56:49;9.90;96.00
40516;DHT22;26216;53.724;9.898;2022-11-03T05:59:19;9.90;96.00
40516;DHT22;26216;53.724;9.898;2022-11-03T06:01:47;9.90;96.10
40516;DHT22;26216;53.724;9.898;2022-11-03T06:04:27;9.80;96.00
40516;DHT22;26216;53.724;9.898;2022-11-03T06:06:59;9.90;96.10
40516;DHT22;26216;53.724;9.898;2022-11-03T06:09:26;9.90;96.10
40516;DHT22;26216;53.724;9.898;2022-11-03T06:11:56;9.90;96.30
40516;DHT22;26216;53.724;9.898;2022-11-03T06:14:25;9.90;96.30
40516;DHT22;26216;53.724;9.898;2022-11-03T06:17:05;9.90;96.50
40516;DHT22;26216;53.724;9.898;2022-11-03T06:19:38;9.90;96.50
40516;DHT22;26216;53.724;9.898;2022-11-03T06:24:45;9.90;96.60
40516;DHT22;26216;53.724;9.898;2022-11-03T06:27:37;10.00;96.50
40516;DHT22;26216;53.724;9.898;2022-11-03T06:30:23;10.00;96.60
40516;DHT22;26216;53.724;9.898;2022-11-03T06:32:49;10.00;96.70
40516;DHT22;26216;53.724;9.898;2022-11-03T06:35:15;10.00;96.60
40516;DHT22;26216;53.724;9.898;2022-11-03T06:37:42;10.10;96.60
40516;DHT22;26216;53.724;9.898;2022-11-03T06:42:35;10.10;96.70
40516;DHT22;26216;53.724;9.898;2022-11-03T06:45:21;10.10;96.70
40516;DHT22;26216;53.724;9.898;2022-11-03T06:47:49;10.10;96.80
40516;DHT22;26216;53.724;9.898;2022-11-03T06:50:31;10.10;96.80
40516;DHT22;26216;53.724;9.898;2022-11-03T06:53:00;10.10;96.80
40516;DHT22;26216;53.724;9.898;2022-11-03T06:55:32;10.20;96.70
40516;DHT22;26216;53.724;9.898;2022-11-03T06:58:12;10.20;96.70
40516;DHT22;26216;53.724;9.898;2022-11-03T07:00:40;10.20;96.80
40516;DHT22;26216;53.724;9.898;2022-11-03T07:03:31;10.30;96.80
40516;DHT22;26216;53.724;9.898;2022-11-03T07:06:20;10.30;96.90
40516;DHT22;26216;53.724;9.898;2022-11-03T07:08:52;10.30;96.80
40516;DHT22;26216;53.724;9.898;2022-11-03T07:11:20;10.40;96.90
40516;DHT22;26216;53.724;9.898;2022-11-03T07:13:49;10.40;97.00
40516;DHT22;26216;53.724;9.898;2022-11-03T07:16:21;10.50;97.00
40516;DHT22;26216;53.724;9.898;2022-11-03T07:18:48;10.50;97.00
40516;DHT22;26216;53.724;9.898;2022-11-03T07:21:45;10.50;97.00
40516;DHT22;26216;53.724;9.898;2022-11-03T07:26:46;10.60;96.90
40516;DHT22;26216;53.724;9.898;2022-11-03T07:29:20;10.60;96.90
40516;DHT22;26216;53.724;9.898;2022-11-03T07:31:48;10.70;96.90
40516;DHT22;26216;53.724;9.898;2022-11-03T07:34:20;10.70;96.90
40516;DHT22;26216;53.724;9.898;2022-11-03T07:36:47;10.70;96.90
40516;DHT22;26216;53.724;9.898;2022-11-03T07:39:17;10.80;96.80
40516;DHT22;26216;53.724;9.898;2022-11-03T07:41:43;10.80;96.80
40516;DHT22;26216;53.724;9.898;2022-11-03T07:44:15;10.80;96.80
40516;DHT22;26216;53.724;9.898;2022-11-03T07:46:45;10.90;96.80
40516;DHT22;26216;53.724;9.898;2022-11-03T07:49:26;10.90;96.80
40516;DHT22;26216;53.724;9.898;2022-11-03T07:51:55;10.90;96.80
40516;DHT22;26216;53.724;9.898;2022-11-03T07:54:29;11.00;96.80
40516;DHT22;26216;53.724;9.898;2022-11-03T07:59:48;11.00;96.70
40516;DHT22;26216;53.724;9.898;2022-11-03T08:02:36;11.10;96.70
40516;DHT22;26216;53.724;9.898;2022-11-03T08:05:06;11.10;96.70
40516;DHT22;26216;53.724;9.898;2022-11-03T08:07:39;11.10;96.70
40516;DHT22;26216;53.724;9.898;2022-11-03T08:10:05;11.20;96.60
40516;DHT22;26216;53.724;9.898;2022-11-03T08:12:32;11.20;96.60
40516;DHT22;26216;53.724;9.898;2022-11-03T08:14:58;11.20;96.60
40516;DHT22;26216;53.724;9.898;2022-11-03T08:17:24;11.20;96.60
40516;DHT22;26216;53.724;9.898;2022-11-03T08:19:49;11.20;96.60
40516;DHT22;26216;53.724;9.898;2022-11-03T08:22:15;11.30;96.70
40516;DHT22;26216;53.724;9.898;2022-11-03T08:24:41;11.30;96.70
40516;DHT22;26216;53.724;9.898;2022-11-03T08:27:07;11.30;96.90
40516;DHT22;26216;53.724;9.898;2022-11-03T08:29:33;11.40;96.70
40516;DHT22;26216;53.724;9.898;2022-11-03T08:31:59;11.40;96.80
40516;DHT22;26216;53.724;9.898;2022-11-03T08:34:24;11.40;96.80
40516;DHT22;26216;53.724;9.898;2022-11-03T08:36:50;11.50;96.80
40516;DHT22;26216;53.724;9.898;2022-11-03T08:39:16;11.50;96.80
40516;DHT22;26216;53.724;9.898;2022-11-03T08:41:42;11.50;96.80
40516;DHT22;26216;53.724;9.898;2022-11-03T08:44:08;11.60;96.80
40516;DHT22;26216;53.724;9.898;2022-11-03T08:46:34;11.60;96.80
40516;DHT22;26216;53.724;9.898;2022-11-03T08:49:00;11.70;96.90
40516;DHT22;26216;53.724;9.898;2022-11-03T08:51:25;11.80;96.90
40516;DHT22;26216;53.724;9.898;2022-11-03T08:53:51;11.80;97.00
40516;DHT22;26216;53.724;9.898;2022-11-03T08:56:20;11.90;97.00
40516;DHT22;26216;53.724;9.898;2022-11-03T08:58:46;11.90;97.00
40516;DHT22;26216;53.724;9.898;2022-11-03T09:01:13;12.00;96.90
40516;DHT22;26216;53.724;9.898;2022-11-03T09:03:39;12.10;96.90
40516;DHT22;26216;53.724;9.898;2022-11-03T09:06:05;12.10;96.90
40516;DHT22;26216;53.724;9.898;2022-11-03T09:08:31;12.20;96.90
40516;DHT22;26216;53.724;9.898;2022-11-03T09:10:57;12.20;96.80
40516;DHT22;26216;53.724;9.898;2022-11-03T09:13:23;12.20;96.80
40516;DHT22;26216;53.724;9.898;2022-11-03T09:15:49;12.30;96.80
40516;DHT22;26216;53.724;9.898;2022-11-03T09:18:16;12.40;96.80
40516;DHT22;26216;53.724;9.898;2022-11-03T09:20:42;12.40;96.80
40516;DHT22;26216;53.724;9.898;2022-11-03T09:23:08;12.50;96.90
40516;DHT22;26216;53.724;9.898;2022-11-03T09:25:33;12.60;96.90
40516;DHT22;26216;53.724;9.898;2022-11-03T09:27:59;12.70;96.90
40516;DHT22;26216;53.724;9.898;2022-11-03T09:30:25;12.80;96.90
40516;DHT22;26216;53.724;9.898;2022-11-03T09:32:51;12.80;96.90
40516;DHT22;26216;53.724;9.898;2022-11-03T09:35:17;12.90;96.90
40516;DHT22;26216;53.724;9.898;2022-11-03T09:37:43;13.00;96.80
40516;DHT22;26216;53.724;9.898;2022-11-03T09:40:10;13.00;96.70
40516;DHT22;26216;53.724;9.898;2022-11-03T09:42:37;13.20;96.70
40516;DHT22;26216;53.724;9.898;2022-11-03T09:45:05;13.20;96.70
40516;DHT22;26216;53.724;9.898;2022-11-03T09:47:37;13.30;96.60
40516;DHT22;26216;53.724;9.898;2022-11-03T09:50:04;13.40;96.50
40516;DHT22;26216;53.724;9.898;2022-11-03T09:52:32;13.50;96.40
40516;DHT22;26216;53.724;9.898;2022-11-03T09:55:01;13.50;96.30
40516;DHT22;26216;53.724;9.898;2022-11-03T09:57:27;13.60;96.20
40516;DHT22;26216;53.724;9.898;2022-11-03T09:59:54;13.70;96.10
40516;DHT22;26216;53.724;9.898;2022-11-03T10:02:27;13.70;96.10
40516;DHT22;26216;53.724;9.898;2022-11-03T10:04:55;13.80;95.90
40516;DHT22;26216;53.724;9.898;2022-11-03T10:07:22;13.90;95.90
40516;DHT22;26216;53.724;9.898;2022-11-03T10:09:49;13.90;95.80
40516;DHT22;26216;53.724;9.898;2022-11-03T10:12:16;14.00;95.70
40516;DHT22;26216;53.724;9.898;2022-11-03T10:14:43;14.00;95.60
40516;DHT22;26216;53.724;9.898;2022-11-03T10:17:24;14.10;95.40
40516;DHT22;26216;53.724;9.898;2022-11-03T10:19:51;14.10;95.50
40516;DHT22;26216;53.724;9.898;2022-11-03T10:22:19;14.20;95.50
40516;DHT22;26216;53.724;9.898;2022-11-03T10:24:45;14.20;95.50
40516;DHT22;26216;53.724;9.898;2022-11-03T10:27:22;14.30;95.30
40516;DHT22;26216;53.724;9.898;2022-11-03T10:30:10;14.40;95.10
40516;DHT22;26216;53.724;9.898;2022-11-03T10:32:37;14.40;94.70
40516;DHT22;26216;53.724;9.898;2022-11-03T10:35:31;14.50;95.10
40516;DHT22;26216;53.724;9.898;2022-11-03T10:40:52;14.60;94.50
40516;DHT22;26216;53.724;9.898;2022-11-03T10:43:18;14.60;94.60
40516;DHT22;26216;53.724;9.898;2022-11-03T10:45:45;14.70;94.70
40516;DHT22;26216;53.724;9.898;2022-11-03T10:48:11;14.70;94.60
40516;DHT22;26216;53.724;9.898;2022-11-03T10:50:41;14.70;94.70
40516;DHT22;26216;53.724;9.898;2022-11-03T10:53:18;14.70;94.70
40516;DHT22;26216;53.724;9.898;2022-11-03T10:55:44;14.80;94.60
40516;DHT22;26216;53.724;9.898;2022-11-03T10:58:11;14.80;94.60
40516;DHT22;26216;53.724;9.898;2022-11-03T11:00:39;14.90;94.60
40516;DHT22;26216;53.724;9.898;2022-11-03T11:03:07;14.90;94.60
40516;DHT22;26216;53.724;9.898;2022-11-03T11:05:33;15.00;94.70
40516;DHT22;26216;53.724;9.898;2022-11-03T11:07:58;15.00;94.50
40516;DHT22;26216;53.724;9.898;2022-11-03T11:10:29;15.10;94.50
40516;DHT22;26216;53.724;9.898;2022-11-03T11:15:53;15.10;94.30
40516;DHT22;26216;53.724;9.898;2022-11-03T11:20:55;15.20;94.10
40516;DHT22;26216;53.724;9.898;2022-11-03T11:31:00;15.50;94.40
40516;DHT22;26216;53.724;9.898;2022-11-03T11:33:29;15.50;94.40
40516;DHT22;26216;53.724;9.898;2022-11-03T11:38:59;15.60;94.40
40516;DHT22;26216;53.724;9.898;2022-11-03T11:44:57;15.80;94.10
40516;DHT22;26216;53.724;9.898;2022-11-03T11:47:45;15.80;94.00
40516;DHT22;26216;53.724;9.898;2022-11-03T11:50:24;15.90;93.90
40516;DHT22;26216;53.724;9.898;2022-11-03T11:55:36;16.00;93.60
40516;DHT22;26216;53.724;9.898;2022-11-03T11:58:11;16.10;93.40
40516;DHT22;26216;53.724;9.898;2022-11-03T12:00:50;16.10;93.80
40516;DHT22;26216;53.724;9.898;2022-11-03T12:03:21;16.20;93.70
40516;DHT22;26216;53.724;9.898;2022-11-03T12:05:48;16.20;93.90
40516;DHT22;26216;53.724;9.898;2022-11-03T12:08:24;16.30;93.30
40516;DHT22;26216;53.724;9.898;2022-11-03T12:10:58;16.30;93.70
40516;DHT22;26216;53.724;9.898;2022-11-03T12:13:39;16.40;93.70
40516;DHT22;26216;53.724;9.898;2022-11-03T12:16:07;16.40;93.50
40516;DHT22;26216;53.724;9.898;2022-11-03T12:18:41;16.40;93.80
40516;DHT22;26216;53.724;9.898;2022-11-03T12:26:57;16.50;93.10
40516;DHT22;26216;53.724;9.898;2022-11-03T12:29:24;16.50;93.30
40516;DHT22;26216;53.724;9.898;2022-11-03T12:31:50;16.50;93.30
40516;DHT22;26216;53.724;9.898;2022-11-03T12:34:16;16.50;93.20
40516;DHT22;26216;53.724;9.898;2022-11-03T12:36:43;16.50;93.20
40516;DHT22;26216;53.724;9.898;2022-11-03T12:39:09;16.60;92.80
40516;DHT22;26216;53.724;9.898;2022-11-03T12:41:35;16.60;92.80
40516;DHT22;26216;53.724;9.898;2022-11-03T12:44:01;16.60;93.10
40516;DHT22;26216;53.724;9.898;2022-11-03T12:46:27;16.60;93.10
40516;DHT22;26216;53.724;9.898;2022-11-03T12:48:53;16.60;93.00
40516;DHT22;26216;53.724;9.898;2022-11-03T12:51:22;16.60;93.10
40516;DHT22;26216;53.724;9.898;2022-11-03T12:53:50;16.70;93.10
40516;DHT22;26216;53.724;9.898;2022-11-03T12:56:17;16.70;92.90
40516;DHT22;26216;53.724;9.898;2022-11-03T12:58:44;16.70;93.00
40516;DHT22;26216;53.724;9.898;2022-11-03T13:01:10;16.70;92.90
40516;DHT22;26216;53.724;9.898;2022-11-03T13:03:36;16.70;92.80
40516;DHT22;26216;53.724;9.898;2022-11-03T13:06:03;16.70;92.70
40516;DHT22;26216;53.724;9.898;2022-11-03T13:08:30;16.70;92.70
40516;DHT22;26216;53.724;9.898;2022-11-03T13:10:56;16.70;92.50
40516;DHT22;26216;53.724;9.898;2022-11-03T13:13:22;16.70;92.70
40516;DHT22;26216;53.724;9.898;2022-11-03T13:15:48;16.80;92.70
40516;DHT22;26216;53.724;9.898;2022-11-03T13:18:15;16.80;92.40
40516;DHT22;26216;53.724;9.898;2022-11-03T13:20:41;16.80;92.40
40516;DHT22;26216;53.724;9.898;2022-11-03T13:23:07;16.80;92.50
40516;DHT22;26216;53.724;9.898;2022-11-03T13:25:33;16.80;92.50
40516;DHT22;26216;53.724;9.898;2022-11-03T13:27:59;16.80;92.40
40516;DHT22;26216;53.724;9.898;2022-11-03T13:30:27;16.70;92.20
40516;DHT22;26216;53.724;9.898;2022-11-03T13:32:53;16.70;92.20
40516;DHT22;26216;53.724;9.898;2022-11-03T13:35:19;16.70;92.00
40516;DHT22;26216;53.724;9.898;2022-11-03T13:37:45;16.70;92.10
40516;DHT22;26216;53.724;9.898;2022-11-03T13:40:12;16.70;92.00
40516;DHT22;26216;53.724;9.898;2022-11-03T13:42:38;16.70;92.10
40516;DHT22;26216;53.724;9.898;2022-11-03T13:45:05;16.70;92.10
40516;DHT22;26216;53.724;9.898;2022-11-03T13:47:33;16.70;92.20
40516;DHT22;26216;53.724;9.898;2022-11-03T13:49:59;16.70;92.00
40516;DHT22;26216;53.724;9.898;2022-11-03T13:52:28;16.60;92.20
40516;DHT22;26216;53.724;9.898;2022-11-03T13:54:54;16.60;92.00
40516;DHT22;26216;53.724;9.898;2022-11-03T13:57:21;16.60;92.30
40516;DHT22;26216;53.724;9.898;2022-11-03T13:59:46;16.60;92.10
40516;DHT22;26216;53.724;9.898;2022-11-03T14:02:13;16.60;92.10
40516;DHT22;26216;53.724;9.898;2022-11-03T14:04:39;16.60;91.90
40516;DHT22;26216;53.724;9.898;2022-11-03T14:07:06;16.60;92.00
40516;DHT22;26216;53.724;9.898;2022-11-03T14:09:32;16.60;92.00
40516;DHT22;26216;53.724;9.898;2022-11-03T14:11:58;16.50;91.90
40516;DHT22;26216;53.724;9.898;2022-11-03T14:14:42;16.50;91.90
40516;DHT22;26216;53.724;9.898;2022-11-03T14:17:08;16.50;91.90
40516;DHT22;26216;53.724;9.898;2022-11-03T14:19:35;16.40;91.90
40516;DHT22;26216;53.724;9.898;2022-11-03T14:22:01;16.40;92.00
40516;DHT22;26216;53.724;9.898;2022-11-03T14:24:27;16.40;92.00
40516;DHT22;26216;53.724;9.898;2022-11-03T14:26:53;16.40;92.00
40516;DHT22;26216;53.724;9.898;2022-11-03T14:29:19;16.40;92.00
40516;DHT22;26216;53.724;9.898;2022-11-03T14:31:45;16.30;91.90
40516;DHT22;26216;53.724;9.898;2022-11-03T14:34:11;16.30;92.00
40516;DHT22;26216;53.724;9.898;2022-11-03T14:36:37;16.20;92.10
40516;DHT22;26216;53.724;9.898;2022-11-03T14:39:03;16.20;92.10
40516;DHT22;26216;53.724;9.898;2022-11-03T14:41:29;16.20;92.10
40516;DHT22;26216;53.724;9.898;2022-11-03T14:44:13;16.10;92.10
40516;DHT22;26216;53.724;9.898;2022-11-03T14:46:39;16.10;92.10
40516;DHT22;26216;53.724;9.898;2022-11-03T14:49:06;16.10;92.20
40516;DHT22;26216;53.724;9.898;2022-11-03T14:51:33;16.00;92.20
40516;DHT22;26216;53.724;9.898;2022-11-03T14:53:58;16.00;92.20
40516;DHT22;26216;53.724;9.898;2022-11-03T14:56:24;15.90;92.30
40516;DHT22;26216;53.724;9.898;2022-11-03T14:58:51;15.90;92.40
40516;DHT22;26216;53.724;9.898;2022-11-03T15:01:17;15.80;92.40
40516;DHT22;26216;53.724;9.898;2022-11-03T15:03:44;15.80;92.50
40516;DHT22;26216;53.724;9.898;2022-11-03T15:06:10;15.80;92.50
40516;DHT22;26216;53.724;9.898;2022-11-03T15:08:37;15.70;92.50
40516;DHT22;26216;53.724;9.898;2022-11-03T15:11:03;15.70;92.60
40516;DHT22;26216;53.724;9.898;2022-11-03T15:13:32;15.70;92.60
40516;DHT22;26216;53.724;9.898;2022-11-03T15:15:58;15.70;92.70
40516;DHT22;26216;53.724;9.898;2022-11-03T15:18:24;15.60;92.70
40516;DHT22;26216;53.724;9.898;2022-11-03T15:20:50;15.60;92.80
40516;DHT22;26216;53.724;9.898;2022-11-03T15:23:17;15.60;92.80
40516;DHT22;26216;53.724;9.898;2022-11-03T15:25:43;15.50;92.90
40516;DHT22;26216;53.724;9.898;2022-11-03T15:28:09;15.50;93.00
40516;DHT22;26216;53.724;9.898;2022-11-03T15:30:36;15.50;93.00
40516;DHT22;26216;53.724;9.898;2022-11-03T15:33:03;15.40;93.00
40516;DHT22;26216;53.724;9.898;2022-11-03T15:35:29;15.40;93.10
40516;DHT22;26216;53.724;9.898;2022-11-03T15:37:55;15.40;93.10
40516;DHT22;26216;53.724;9.898;2022-11-03T15:40:24;15.40;93.20
40516;DHT22;26216;53.724;9.898;2022-11-03T15:42:50;15.30;93.20
40516;DHT22;26216;53.724;9.898;2022-11-03T15:45:17;15.30;93.30
40516;DHT22;26216;53.724;9.898;2022-11-03T15:47:43;15.20;93.30
40516;DHT22;26216;53.724;9.898;2022-11-03T15:50:10;15.20;93.30
40516;DHT22;26216;53.724;9.898;2022-11-03T15:52:37;15.20;93.40
40516;DHT22;26216;53.724;9.898;2022-11-03T15:55:05;15.20;93.40
40516;DHT22;26216;53.724;9.898;2022-11-03T15:57:31;15.10;93.40
40516;DHT22;26216;53.724;9.898;2022-11-03T15:59:57;15.10;93.50
40516;DHT22;26216;53.724;9.898;2022-11-03T16:02:24;15.10;93.50
40516;DHT22;26216;53.724;9.898;2022-11-03T16:04:49;15.00;93.60
40516;DHT22;26216;53.724;9.898;2022-11-03T16:07:15;15.00;93.60
40516;DHT22;26216;53.724;9.898;2022-11-03T16:09:41;15.00;93.60
40516;DHT22;26216;53.724;9.898;2022-11-03T16:12:08;14.90;93.60
40516;DHT22;26216;53.724;9.898;2022-11-03T16:14:34;14.90;93.70
40516;DHT22;26216;53.724;9.898;2022-11-03T16:17:07;14.90;93.70
40516;DHT22;26216;53.724;9.898;2022-11-03T16:19:33;14.90;93.90
40516;DHT22;26216;53.724;9.898;2022-11-03T16:21:59;14.80;93.80
40516;DHT22;26216;53.724;9.898;2022-11-03T16:24:26;14.80;93.80
40516;DHT22;26216;53.724;9.898;2022-11-03T16:26:52;14.80;93.90
40516;DHT22;26216;53.724;9.898;2022-11-03T16:29:18;14.80;93.90
40516;DHT22;26216;53.724;9.898;2022-11-03T16:31:44;14.70;93.90
40516;DHT22;26216;53.724;9.898;2022-11-03T16:34:12;14.70;93.90
40516;DHT22;26216;53.724;9.898;2022-11-03T16:36:38;14.70;93.90
40516;DHT22;26216;53.724;9.898;2022-11-03T16:39:05;14.70;93.90
40516;DHT22;26216;53.724;9.898;2022-11-03T16:41:31;14.70;94.00
40516;DHT22;26216;53.724;9.898;2022-11-03T16:43:57;14.60;94.00
40516;DHT22;26216;53.724;9.898;2022-11-03T16:46:23;14.60;94.10
40516;DHT22;26216;53.724;9.898;2022-11-03T16:48:49;14.60;94.00
40516;DHT22;26216;53.724;9.898;2022-11-03T16:51:15;14.60;94.00
40516;DHT22;26216;53.724;9.898;2022-11-03T16:53:41;14.60;94.10
40516;DHT22;26216;53.724;9.898;2022-11-03T16:56:07;14.50;94.10